Time;durP1;ratioP1;P1;durP2;ratioP2;P2;SDS_P1;SDS_P2;PMS_P1;PMS_P2;Temp;Humidity;BMP_temperature;BMP_pressure;BME280_temperature;BME280_humidity;BME280_pressure;Samples;Min_cycle;Max_cycle;Signal;HPM_P1;HPM_P2
2023/10/11 00:00:57;;;;;;;7.00;2.90;;;;;;;4.58;59.41;101507.91;106110;1257;60698;-57
2023/10/11 00:05:53;;;;;;;12.10;5.50;;;;;;;4.61;59.27;101507.48;105524;1257;64911;-57
2023/10/11 00:08:25;;;;;;;12.20;4.80;;;;;;;4.58;59.36;101510.88;105614;1251;60435;-56
2023/10/11 00:10:56;;;;;;;12.40;5.20;;;;;;;4.54;59.37;101513.64;105622;1254;64717;-57
2023/10/11 00:13:33;;;;;;;12.70;5.40;;;;;;;4.50;59.36;101510.48;105544;1252;60901;-55
2023/10/11 00:16:08;;;;;;;8.90;4.30;;;;;;;4.48;59.48;101506.38;106052;1257;60438;-55
2023/10/11 00:18:41;;;;;;;12.60;4.10;;;;;;;4.47;59.57;101503.11;105788;1254;64985;-55
2023/10/11 00:21:11;;;;;;;8.50;3.90;;;;;;;4.42;59.57;101502.77;105806;1257;61437;-53
2023/10/11 00:23:44;;;;;;;11.30;4.10;;;;;;;4.36;59.61;101502.11;105504;1254;62431;-54
2023/10/11 00:26:14;;;;;;;8.90;4.00;;;;;;;4.31;59.82;101502.48;105484;1251;60447;-54
2023/10/11 00:28:48;;;;;;;10.80;4.30;;;;;;;4.28;59.85;101505.67;105544;1251;60331;-54
2023/10/11 00:31:17;;;;;;;14.40;5.00;;;;;;;4.25;59.80;101511.89;105693;1256;64958;-54
2023/10/11 00:33:46;;;;;;;8.70;4.00;;;;;;;4.18;59.91;101514.56;105633;1257;61342;-55
2023/10/11 00:36:29;;;;;;;7.10;3.00;;;;;;;4.13;60.08;101515.11;105637;1257;64622;-55
2023/10/11 00:38:56;;;;;;;8.00;3.60;;;;;;;4.06;60.26;101518.27;105914;1254;60507;-54
2023/10/11 00:41:31;;;;;;;9.50;3.90;;;;;;;4.00;60.37;101521.44;105568;1253;60348;-55
2023/10/11 00:43:58;;;;;;;9.00;4.10;;;;;;;3.92;60.47;101520.31;105990;1257;64901;-56
2023/10/11 00:46:50;;;;;;;8.40;2.80;;;;;;;3.86;60.66;101517.41;105535;1257;60468;-56
2023/10/11 00:49:21;;;;;;;8.30;3.20;;;;;;;3.87;60.71;101518.77;105511;1252;63709;-55
2023/10/11 00:51:48;;;;;;;8.90;2.90;;;;;;;3.91;60.86;101522.80;105504;1251;60489;-55
2023/10/11 00:54:16;;;;;;;8.20;2.20;;;;;;;3.95;60.86;101528.91;105359;1251;60477;-56
2023/10/11 00:56:48;;;;;;;6.60;2.30;;;;;;;4.00;60.91;101536.76;105676;1251;64932;-56
2023/10/11 00:59:19;;;;;;;8.50;3.10;;;;;;;4.03;60.98;101535.59;105287;1259;60783;-54
2023/10/11 01:01:47;;;;;;;9.70;3.50;;;;;;;4.04;60.97;101534.68;105593;1261;63823;-55
2023/10/11 01:04:16;;;;;;;8.60;3.50;;;;;;;4.03;61.10;101535.61;105491;1253;60543;-55
2023/10/11 01:06:48;;;;;;;10.60;4.40;;;;;;;4.02;61.14;101536.86;105659;1251;60514;-55
2023/10/11 01:09:17;;;;;;;13.70;5.00;;;;;;;4.02;61.20;101536.34;105689;1255;63697;-55
2023/10/11 01:11:47;;;;;;;13.10;4.80;;;;;;;4.01;61.06;101535.50;105593;1257;60472;-55
2023/10/11 01:14:15;;;;;;;11.50;5.40;;;;;;;3.96;60.99;101536.02;105457;1254;63758;-59
2023/10/11 01:16:43;;;;;;;7.80;3.80;;;;;;;3.88;60.99;101538.70;105786;1251;60532;-56
2023/10/11 01:19:12;;;;;;;8.50;4.20;;;;;;;3.84;61.10;101540.73;105720;1257;60370;-54
2023/10/11 01:21:39;;;;;;;10.60;5.10;;;;;;;3.79;61.28;101542.66;105876;1251;65140;-56
2023/10/11 01:24:08;;;;;;;14.30;5.00;;;;;;;3.72;61.47;101541.98;105487;1254;61879;-56
2023/10/11 01:26:36;;;;;;;8.70;3.50;;;;;;;3.67;61.60;101544.05;105947;1254;62486;-55
2023/10/11 01:29:05;;;;;;;9.70;2.90;;;;;;;3.65;61.58;101547.27;105461;1254;60536;-56
2023/10/11 01:31:34;;;;;;;8.80;3.40;;;;;;;3.69;61.45;101549.40;106005;1256;60434;-56
2023/10/11 01:34:02;;;;;;;6.60;2.60;;;;;;;3.71;61.30;101550.89;105983;1254;65295;-55
2023/10/11 01:36:30;;;;;;;7.10;3.20;;;;;;;3.70;61.26;101552.11;105515;1254;61976;-54
2023/10/11 01:39:06;;;;;;;9.70;3.20;;;;;;;3.69;61.29;101553.56;105366;1257;63783;-55
2023/10/11 01:41:36;;;;;;;7.60;2.90;;;;;;;3.68;61.51;101556.54;106008;1251;60545;-55
2023/10/11 01:44:04;;;;;;;9.70;3.30;;;;;;;3.68;61.56;101559.33;105949;1256;60439;-55
2023/10/11 01:46:35;;;;;;;6.50;2.90;;;;;;;3.66;61.56;101566.16;105496;1256;64961;-55
2023/10/11 01:49:06;;;;;;;10.20;4.20;;;;;;;3.62;61.56;101567.50;105831;1255;62009;-55
2023/10/11 01:51:39;;;;;;;13.40;4.50;;;;;;;3.58;61.61;101562.23;105903;1257;63761;-55
2023/10/11 01:54:06;;;;;;;10.60;4.50;;;;;;;3.55;61.50;101557.98;105702;1259;60536;-55
2023/10/11 01:56:34;;;;;;;13.10;4.50;;;;;;;3.50;61.46;101558.67;105420;1255;60507;-55
2023/10/11 01:59:04;;;;;;;9.40;2.90;;;;;;;3.46;61.49;101564.67;105837;1257;63665;-55
2023/10/11 02:01:41;;;;;;;9.30;3.60;;;;;;;3.43;61.56;101568.95;106042;1251;61332;-56
2023/10/11 02:04:17;;;;;;;9.80;3.10;;;;;;;3.41;61.73;101567.98;105664;1257;62547;-55
2023/10/11 02:06:49;;;;;;;7.20;3.30;;;;;;;3.36;61.86;101567.44;105544;1256;60546;-55
2023/10/11 02:09:21;;;;;;;8.80;3.80;;;;;;;3.36;61.82;101567.44;105514;1254;60533;-55
2023/10/11 02:11:54;;;;;;;7.60;3.00;;;;;;;3.43;61.89;101567.92;105511;1258;64920;-55
2023/10/11 02:14:23;;;;;;;4.70;2.10;;;;;;;3.50;61.94;101571.34;106207;1251;63369;-57
2023/10/11 02:16:54;;;;;;;7.50;3.70;;;;;;;3.59;61.82;101574.35;105396;1254;62622;-56
2023/10/11 02:19:24;;;;;;;10.80;3.60;;;;;;;3.66;61.63;101577.23;106168;1253;60786;-55
2023/10/11 02:21:55;;;;;;;11.10;3.40;;;;;;;3.66;61.50;101581.42;105559;1254;60537;-56
2023/10/11 02:24:25;;;;;;;10.00;4.10;;;;;;;3.61;61.46;101579.48;105580;1254;65194;-55
2023/10/11 02:26:54;;;;;;;10.40;4.60;;;;;;;3.60;61.64;101583.52;105532;1255;61519;-54
2023/10/11 02:29:25;;;;;;;11.20;4.40;;;;;;;3.59;61.64;101590.83;105416;1259;64168;-55
2023/10/11 02:31:54;;;;;;;17.00;10.40;;;;;;;3.54;61.47;101597.39;106180;1254;63219;-56
2023/10/11 02:34:22;;;;;;;11.10;4.00;;;;;;;3.48;61.40;101599.16;105546;1254;60471;-56
2023/10/11 02:37:10;;;;;;;10.60;4.50;;;;;;;3.42;61.53;101602.98;105655;1253;64931;-55
2023/10/11 02:39:45;;;;;;;10.90;4.20;;;;;;;3.38;61.55;101608.83;105826;1253;62383;-54
2023/10/11 02:42:19;;;;;;;10.70;4.30;;;;;;;3.33;61.52;101609.15;105475;1257;64311;-54
2023/10/11 02:44:48;;;;;;;14.90;5.80;;;;;;;3.28;61.57;101604.63;105569;1254;61124;-54
2023/10/11 02:47:22;;;;;;;12.50;5.20;;;;;;;3.21;61.55;101602.74;105653;1254;60332;-54
2023/10/11 02:49:53;;;;;;;11.10;3.80;;;;;;;3.16;61.65;101609.31;105426;1258;64868;-55
2023/10/11 02:52:29;;;;;;;11.50;5.10;;;;;;;3.11;61.77;101607.02;105562;1251;61326;-55
2023/10/11 02:54:59;;;;;;;11.20;4.00;;;;;;;3.06;61.68;101606.13;105989;1254;63837;-56
2023/10/11 02:57:27;;;;;;;11.80;4.90;;;;;;;3.01;61.69;101604.38;106111;1257;60463;-57
2023/10/11 02:59:56;;;;;;;7.40;2.80;;;;;;;2.98;61.86;101606.55;105459;1251;60524;-55
2023/10/11 03:02:29;;;;;;;9.70;3.00;;;;;;;2.99;61.75;101608.23;106070;1254;64869;-55
2023/10/11 03:05:01;;;;;;;11.20;3.70;;;;;;;3.07;61.67;101610.79;105956;1257;60526;-55
2023/10/11 03:07:33;;;;;;;9.40;2.60;;;;;;;3.15;61.75;101612.46;105362;1254;63683;-56
2023/10/11 03:10:03;;;;;;;7.30;2.90;;;;;;;3.22;61.91;101613.13;105927;1254;60559;-55
2023/10/11 03:12:31;;;;;;;8.30;3.80;;;;;;;3.30;62.15;101611.83;106056;1254;60496;-57
2023/10/11 03:15:09;;;;;;;5.30;2.00;;;;;;;3.40;62.15;101614.29;106073;1251;63646;-56
2023/10/11 03:17:41;;;;;;;11.70;5.60;;;;;;;3.49;62.25;101613.02;105891;1254;60504;-56
2023/10/11 03:20:36;;;;;;;11.80;5.70;;;;;;;3.52;62.08;101612.20;105478;1254;63672;-55
2023/10/11 03:23:10;;;;;;;9.30;4.30;;;;;;;3.52;61.94;101608.41;105501;1256;60555;-54
2023/10/11 03:25:43;;;;;;;6.40;3.30;;;;;;;3.51;61.86;101608.98;105677;1257;60556;-55
2023/10/11 03:28:14;;;;;;;13.00;5.30;;;;;;;3.48;61.58;101611.13;105640;1254;64887;-55
2023/10/11 03:30:42;;;;;;;6.10;2.90;;;;;;;3.43;61.40;101613.53;105695;1256;62365;-56
2023/10/11 03:33:11;;;;;;;9.30;4.10;;;;;;;3.40;61.47;101611.88;105790;1251;63654;-54
2023/10/11 03:35:39;;;;;;;12.00;4.30;;;;;;;3.38;61.56;101612.48;105733;1253;60558;-55
2023/10/11 03:38:17;;;;;;;11.80;5.00;;;;;;;3.33;61.41;101611.41;105741;1257;61599;-55
2023/10/11 03:40:54;;;;;;;9.70;5.70;;;;;;;3.25;61.39;101612.17;105593;1251;65029;-57
2023/10/11 03:43:23;;;;;;;10.80;4.30;;;;;;;3.16;61.44;101614.84;105516;1251;61427;-55
2023/10/11 03:45:51;;;;;;;7.90;3.70;;;;;;;3.13;61.64;101615.11;105647;1255;62561;-58
2023/10/11 03:48:27;;;;;;;10.50;5.60;;;;;;;3.11;61.71;101615.19;105550;1251;60477;-59
2023/10/11 03:50:56;;;;;;;8.60;4.20;;;;;;;3.06;61.72;101613.77;105494;1253;60229;-64
2023/10/11 03:53:24;;;;;;;11.80;4.30;;;;;;;3.04;61.90;101612.27;105609;1257;65473;-58
2023/10/11 03:55:53;;;;;;;8.80;4.40;;;;;;;3.03;62.02;101608.31;105555;1251;61347;-60
2023/10/11 03:58:33;;;;;;;9.80;4.30;;;;;;;3.02;62.00;101607.81;105415;1253;63749;-54
2023/10/11 04:01:49;;;;;;;9.00;3.50;;;;;;;2.99;62.00;101607.89;105245;1254;60562;-55
2023/10/11 04:03:50;;;;;;;5.80;2.30;;;;;;;3.04;61.86;101613.14;105477;1254;61166;-54
2023/10/11 04:06:19;;;;;;;7.60;2.50;;;;;;;3.10;61.72;101614.50;105508;1251;63713;-54
2023/10/11 04:08:55;;;;;;;7.20;2.10;;;;;;;3.15;61.63;101620.24;105562;1256;61345;-54
2023/10/11 04:11:30;;;;;;;10.10;3.20;;;;;;;3.20;61.51;101623.08;105582;1253;64251;-54
2023/10/11 04:13:58;;;;;;;8.40;2.20;;;;;;;3.26;61.47;101620.82;106027;1253;60737;-56
2023/10/11 04:16:28;;;;;;;7.30;2.80;;;;;;;3.33;61.35;101623.04;106228;1255;59422;-56
2023/10/11 04:19:01;;;;;;;12.10;2.40;;;;;;;3.35;61.36;101625.90;106154;1251;64858;-55
2023/10/11 04:24:36;;;;;;;6.90;3.20;;;;;;;3.38;61.36;101628.42;104893;1262;63678;-56
2023/10/11 04:27:45;;;;;;;8.70;3.70;;;;;;;3.41;61.23;101631.79;105372;1257;60581;-56
2023/10/11 04:30:17;;;;;;;10.80;4.10;;;;;;;3.39;61.01;101631.02;105435;1252;59640;-56
2023/10/11 04:32:46;;;;;;;11.40;4.90;;;;;;;3.33;61.01;101632.05;105643;1254;64922;-56
2023/10/11 04:35:24;;;;;;;11.50;3.90;;;;;;;3.29;61.18;101633.91;105502;1251;61518;-59
2023/10/11 04:37:55;;;;;;;9.50;4.00;;;;;;;3.26;61.22;101634.52;105485;1253;63705;-57
2023/10/11 04:40:38;;;;;;;12.50;4.10;;;;;;;3.21;61.32;101640.55;105577;1251;60501;-55
2023/10/11 04:43:11;;;;;;;11.00;3.60;;;;;;;3.16;61.30;101639.13;105423;1257;60657;-57
2023/10/11 04:45:45;;;;;;;8.90;3.40;;;;;;;3.10;61.29;101635.13;105805;1250;63633;-55
2023/10/11 04:48:18;;;;;;;13.60;5.60;;;;;;;3.07;61.41;101636.27;105494;1257;61516;-55
2023/10/11 04:50:50;;;;;;;12.20;4.60;;;;;;;3.05;61.57;101646.20;105517;1254;63765;-56
2023/10/11 04:53:18;;;;;;;8.30;3.80;;;;;;;3.05;61.72;101650.20;105667;1253;60532;-56
2023/10/11 04:56:52;;;;;;;10.10;4.70;;;;;;;3.06;61.91;101645.15;105489;1257;60964;-56
2023/10/11 04:58:51;;;;;;;11.50;5.70;;;;;;;3.09;62.04;101644.19;105410;1251;64947;-53
2023/10/11 05:01:22;;;;;;;10.20;2.60;;;;;;;3.10;62.05;101643.64;105487;1254;60422;-56
2023/10/11 05:03:59;;;;;;;9.60;3.30;;;;;;;3.19;62.11;101641.30;105570;1253;63767;-54
2023/10/11 05:06:39;;;;;;;6.90;3.20;;;;;;;3.32;61.97;101645.08;106169;1251;60472;-56
2023/10/11 05:09:21;;;;;;;7.00;2.90;;;;;;;3.46;61.99;101646.77;105774;1253;60504;-55
2023/10/11 05:11:58;;;;;;;7.50;2.20;;;;;;;3.61;62.06;101645.25;105537;1254;64906;-55
2023/10/11 05:14:29;;;;;;;7.10;2.60;;;;;;;3.78;62.04;101645.94;106078;1254;60452;-55
2023/10/11 05:20:20;;;;;;;7.40;3.10;;;;;;;4.02;61.78;101651.59;105648;1254;60536;-56
2023/10/11 05:27:56;;;;;;;7.90;3.70;;;;;;;4.20;61.60;101652.39;105701;1254;62095;-56
2023/10/11 05:52:19;;;;;;;9.40;4.60;;;;;;;4.54;60.73;101674.75;105451;1256;64861;-58
2023/10/11 05:54:49;;;;;;;10.60;4.00;;;;;;;4.54;60.76;101674.88;105353;1254;60370;-56
2023/10/11 05:57:19;;;;;;;9.90;3.60;;;;;;;4.57;60.75;101675.66;109258;1251;62541;-56
2023/10/11 05:59:49;;;;;;;8.10;3.40;;;;;;;4.61;60.82;101671.16;109281;1251;58613;-56
2023/10/11 06:02:20;;;;;;;7.10;2.70;;;;;;;4.75;60.56;101662.18;109272;1251;58714;-57
2023/10/11 06:04:48;;;;;;;9.40;3.50;;;;;;;4.95;60.36;101663.03;109327;1251;75272;-56
2023/10/11 06:07:19;;;;;;;11.80;4.20;;;;;;;5.15;60.11;101663.02;109404;1251;61817;-57
2023/10/11 06:09:52;;;;;;;9.20;3.50;;;;;;;5.38;59.83;101674.00;109289;1253;63914;-57
2023/10/11 06:12:22;;;;;;;8.20;3.00;;;;;;;5.62;59.46;101675.55;109315;1251;58585;-56
2023/10/11 06:14:52;;;;;;;11.30;4.90;;;;;;;5.78;58.98;101679.96;109342;1252;58408;-56
2023/10/11 06:17:32;;;;;;;13.00;5.80;;;;;;;5.91;58.59;101679.10;106935;1254;63724;-56
2023/10/11 06:24:34;;;;;;;14.10;5.90;;;;;;;6.18;57.68;101675.25;104223;1288;601813;-91
2023/10/11 06:32:01;;;;;;;12.00;6.60;;;;;;;6.32;57.21;101678.70;104621;1285;600610;-95
2023/10/11 06:34:56;;;;;;;15.50;6.10;;;;;;;6.50;56.69;101679.89;106297;1267;59408;-96
2023/10/11 06:37:34;;;;;;;14.60;5.20;;;;;;;6.55;56.31;101681.59;106243;1263;59329;-93
2023/10/11 06:40:08;;;;;;;11.70;5.50;;;;;;;6.58;56.13;101682.14;106517;1265;62248;-93
2023/10/11 06:42:40;;;;;;;12.20;5.40;;;;;;;6.62;56.11;101685.64;106729;1260;59254;-95
2023/10/11 06:45:21;;;;;;;15.70;6.00;;;;;;;6.68;55.96;101683.45;106352;1259;276654;-96
2023/10/11 06:48:06;;;;;;;12.60;6.90;;;;;;;6.75;56.02;101685.06;106812;1264;59195;-94
2023/10/11 06:50:59;;;;;;;11.50;5.60;;;;;;;6.84;55.63;101685.91;104424;1262;59535;-58
2023/10/11 06:53:28;;;;;;;12.30;5.80;;;;;;;6.92;55.41;101684.52;104593;1263;63304;-59
2023/10/11 06:55:58;;;;;;;12.10;4.30;;;;;;;6.99;55.35;101679.88;104966;1262;61438;-58
2023/10/11 06:58:26;;;;;;;11.80;4.90;;;;;;;7.05;55.30;101680.47;104989;1262;63679;-60
2023/10/11 07:06:11;;;;;;;11.20;4.90;;;;;;;7.26;54.85;101679.00;105765;1286;601675;-92
2023/10/11 07:08:53;;;;;;;6.60;2.60;;;;;;;7.61;53.79;101680.70;108660;1259;57207;-93
2023/10/11 07:11:50;;;;;;;17.60;9.80;;;;;;;7.86;53.00;101682.15;108570;1260;57213;-93
2023/10/11 07:14:18;;;;;;;8.00;3.80;;;;;;;8.07;52.41;101680.11;108709;1260;63607;-91
2023/10/11 07:16:55;;;;;;;14.20;8.80;;;;;;;8.24;52.17;101678.58;108598;1260;60356;-92
2023/10/11 07:19:23;;;;;;;10.20;4.20;;;;;;;8.39;51.70;101680.10;108539;1260;230331;-93
2023/10/11 07:21:54;;;;;;;12.40;7.80;;;;;;;8.52;51.42;101679.13;108716;1260;57278;-94
2023/10/11 07:27:12;;;;;;;12.10;7.30;;;;;;;8.79;50.43;101684.03;109127;1254;62537;-93
2023/10/11 07:29:47;;;;;;;14.50;8.70;;;;;;;8.91;49.72;101686.57;109136;1253;61422;-94
2023/10/11 07:32:18;;;;;;;8.00;3.00;;;;;;;9.01;49.25;101684.98;109176;1253;64494;-93
2023/10/11 07:34:54;;;;;;;12.10;7.10;;;;;;;9.09;48.92;101683.68;109124;1254;57330;-93
2023/10/11 07:37:26;;;;;;;8.10;3.50;;;;;;;9.19;48.52;101686.51;109277;1253;57676;-92
2023/10/11 07:40:00;;;;;;;10.80;6.60;;;;;;;9.27;48.57;101681.14;109130;1253;66342;-93
2023/10/11 07:42:36;;;;;;;11.90;7.10;;;;;;;9.38;48.71;101686.34;109204;1253;61322;-93
2023/10/11 07:45:12;;;;;;;7.60;2.80;;;;;;;9.51;48.48;101686.17;108699;1252;64867;-94
2023/10/11 07:47:48;;;;;;;;;;;;;;;9.63;48.09;101687.27;108749;1256;59232;-95
2023/10/11 07:50:22;;;;;;;11.80;6.30;;;;;;;9.75;47.31;101685.41;108697;1253;59311;-95
2023/10/11 07:52:51;;;;;;;8.60;2.60;;;;;;;9.85;47.01;101683.77;108934;1253;66342;-93
2023/10/11 07:55:27;;;;;;;11.00;5.80;;;;;;;9.96;46.89;101680.73;108888;1254;60546;-96
2023/10/11 07:58:02;;;;;;;11.00;6.50;;;;;;;10.08;46.35;101675.98;108803;1253;64293;-92
2023/10/11 08:00:30;;;;;;;12.60;6.20;;;;;;;10.19;46.30;101671.13;109272;1254;59522;-92
2023/10/11 08:03:04;;;;;;;12.80;6.00;;;;;;;10.30;46.08;101668.60;109053;1252;59738;-92
2023/10/11 08:05:45;;;;;;;12.00;5.90;;;;;;;10.41;45.74;101668.30;108862;1254;65227;-92
2023/10/11 08:08:18;;;;;;;12.70;7.00;;;;;;;10.53;45.69;101664.79;109028;1253;61930;-92
2023/10/11 08:10:52;;;;;;;9.00;5.60;;;;;;;10.66;45.55;101656.47;108749;1253;63343;-95
2023/10/11 08:13:26;;;;;;;10.70;5.50;;;;;;;10.80;45.10;101652.35;109052;1251;59151;-93
2023/10/11 08:16:05;;;;;;;8.40;4.70;;;;;;;10.92;45.07;101645.46;109082;1254;57570;-94
2023/10/11 08:18:40;;;;;;;8.60;4.90;;;;;;;11.05;44.12;101644.30;109019;1253;62841;-93
2023/10/11 08:21:10;;;;;;;8.90;5.30;;;;;;;11.16;43.69;101643.30;108976;1254;60174;-93
2023/10/11 08:23:42;;;;;;;9.30;4.50;;;;;;;11.25;43.74;101640.95;108893;1253;63050;-95
2023/10/11 08:26:17;;;;;;;6.50;2.50;;;;;;;11.36;43.43;101642.58;108806;1252;59581;-94
2023/10/11 08:28:54;;;;;;;8.00;3.90;;;;;;;11.47;42.98;101645.77;108719;1253;57682;-95
2023/10/11 08:31:35;;;;;;;10.90;4.40;;;;;;;11.57;42.60;101642.98;108928;1253;64136;-93
2023/10/11 08:34:09;;;;;;;9.50;4.20;;;;;;;11.66;42.19;101639.96;108961;1253;71040;-94
2023/10/11 08:36:37;;;;;;;7.00;3.30;;;;;;;11.75;42.44;101636.23;108869;1256;62515;-96
2023/10/11 08:43:19;;;;;;;6.40;3.10;;;;;;;12.05;42.22;101628.84;107305;1254;77388;-57
2023/10/11 08:45:59;;;;;;;7.30;2.90;;;;;;;12.18;41.50;101632.37;105200;1256;64385;-62
2023/10/11 08:48:27;;;;;;;7.80;3.40;;;;;;;12.27;41.02;101628.74;105206;1256;61390;-61
2023/10/11 08:50:56;;;;;;;6.60;2.90;;;;;;;12.36;40.93;101630.13;105237;1256;63680;-60
2023/10/11 08:53:26;;;;;;;7.40;3.40;;;;;;;12.43;40.25;101629.96;105738;1256;59672;-66
2023/10/11 08:55:57;;;;;;;6.50;2.80;;;;;;;12.49;40.08;101632.60;105241;1259;59564;-62
2023/10/11 08:58:27;;;;;;;6.00;2.80;;;;;;;12.53;40.24;101636.16;109085;1254;64671;-60
2023/10/11 09:00:57;;;;;;;5.40;2.40;;;;;;;12.59;40.36;101632.60;108997;1254;62350;-61
2023/10/11 09:03:26;;;;;;;5.60;2.30;;;;;;;12.65;39.98;101635.33;109007;1256;63789;-59
2023/10/11 09:06:00;;;;;;;6.30;2.20;;;;;;;12.71;39.69;101630.52;109015;1256;57575;-59
2023/10/11 09:08:32;;;;;;;6.70;2.70;;;;;;;12.78;39.45;101632.52;108986;1256;57417;-61
2023/10/11 09:11:15;;;;;;;5.40;2.30;;;;;;;12.85;39.25;101626.59;109060;1256;62912;-61
2023/10/11 09:13:43;;;;;;;4.80;2.00;;;;;;;12.93;39.35;101623.36;109020;1254;60122;-63
2023/10/11 09:16:34;;;;;;;5.30;1.70;;;;;;;13.01;39.49;101616.96;108914;1255;63906;-60
2023/10/11 09:19:06;;;;;;;6.10;2.20;;;;;;;13.11;39.01;101617.69;109119;1255;57620;-56
2023/10/11 09:21:36;;;;;;;6.10;1.90;;;;;;;13.22;38.90;101616.21;106987;1257;59641;-55
2023/10/11 09:24:25;;;;;;;5.70;2.40;;;;;;;13.31;38.53;101611.38;105437;1256;64158;-59
2023/10/11 09:27:12;;;;;;;6.10;2.50;;;;;;;13.37;38.18;101613.58;105757;1255;72393;-57
2023/10/11 09:29:42;;;;;;;5.30;2.10;;;;;;;13.34;38.10;101610.25;105249;1255;63999;-55
2023/10/11 09:32:13;;;;;;;7.60;2.60;;;;;;;13.35;37.61;101604.42;105309;1256;59752;-58
2023/10/11 09:34:44;;;;;;;4.30;1.80;;;;;;;13.36;37.62;101592.33;105229;1259;59496;-57
2023/10/11 09:37:12;;;;;;;5.90;2.20;;;;;;;13.38;37.49;101589.38;105132;1258;64119;-57
2023/10/11 09:39:43;;;;;;;4.70;1.60;;;;;;;13.42;37.79;101589.27;105298;1256;61372;-60
2023/10/11 09:42:12;;;;;;;5.00;1.80;;;;;;;13.47;37.46;101589.77;105931;1256;62600;-60
2023/10/11 09:44:43;;;;;;;5.80;2.00;;;;;;;13.50;37.33;101586.36;105255;1258;59779;-58
2023/10/11 09:47:19;;;;;;;5.80;1.90;;;;;;;13.53;37.17;101586.47;105222;1257;59688;-55
2023/10/11 09:49:47;;;;;;;6.20;1.90;;;;;;;13.57;37.32;101582.52;105877;1256;64685;-56
2023/10/11 09:52:17;;;;;;;7.80;2.30;;;;;;;13.61;37.29;101572.55;105962;1257;62477;-57
2023/10/11 09:54:45;;;;;;;5.20;2.20;;;;;;;13.68;37.46;101573.25;105830;1257;63992;-57
2023/10/11 09:58:17;;;;;;;4.80;2.00;;;;;;;13.78;36.49;101563.88;105254;1256;61071;-59
2023/10/11 10:00:55;;;;;;;5.30;2.30;;;;;;;13.87;36.65;101559.13;105448;1262;59775;-56
2023/10/11 10:03:24;;;;;;;5.50;2.00;;;;;;;13.97;36.54;101550.30;105078;1262;64543;-54
2023/10/11 10:06:25;;;;;;;5.00;2.00;;;;;;;14.05;36.00;101547.71;104828;1262;60630;-55
2023/10/11 10:09:23;;;;;;;6.60;2.20;;;;;;;14.12;35.62;101559.20;105655;1256;64291;-59
2023/10/11 10:12:09;;;;;;;4.70;1.90;;;;;;;14.13;35.52;101555.71;105651;1259;59672;-55
2023/10/11 10:14:37;;;;;;;5.40;2.20;;;;;;;14.17;35.84;101551.92;105324;1259;59564;-58
2023/10/11 10:17:12;;;;;;;4.90;1.70;;;;;;;14.24;35.73;101548.55;105165;1256;64149;-62
2023/10/11 10:19:43;;;;;;;5.00;2.20;;;;;;;14.32;35.51;101537.02;105342;1260;60137;-58
2023/10/11 10:22:22;;;;;;;7.70;2.40;;;;;;;14.41;35.36;101538.45;105249;1256;63714;-59
2023/10/11 10:24:55;;;;;;;6.80;2.30;;;;;;;14.49;34.81;101531.41;105716;1256;59650;-56
2023/10/11 10:27:45;;;;;;;5.90;1.90;;;;;;;14.56;34.87;101519.98;105086;1255;59868;-60
2023/10/11 10:30:21;;;;;;;5.80;1.70;;;;;;;14.63;34.87;101521.50;105305;1260;64179;-60
2023/10/11 10:33:08;;;;;;;;;;;;;;;14.74;34.72;101518.92;105419;1259;61949;-65
2023/10/11 10:35:39;;;;;;;12.50;2.90;;;;;;;14.83;34.67;101509.35;105198;1256;63912;-65
2023/10/11 10:38:09;;;;;;;5.00;2.30;;;;;;;14.91;34.82;101501.84;105143;1256;59750;-64
2023/10/11 10:40:37;;;;;;;5.90;1.90;;;;;;;14.99;34.58;101501.25;105305;1260;59742;-64
2023/10/11 10:43:20;;;;;;;6.50;2.30;;;;;;;15.04;33.56;101501.15;105216;1256;62913;-64
2023/10/11 10:45:49;;;;;;;5.20;2.10;;;;;;;15.08;33.33;101495.05;105979;1256;61397;-63
2023/10/11 10:48:18;;;;;;;6.60;2.10;;;;;;;15.12;33.16;101493.27;105652;1257;62758;-66
2023/10/11 10:50:51;;;;;;;5.70;2.30;;;;;;;15.18;33.08;101492.43;105896;1256;59894;-60
2023/10/11 10:53:24;;;;;;;5.70;2.10;;;;;;;15.24;33.18;101489.45;105621;1257;59654;-58
2023/10/11 10:55:52;;;;;;;4.90;2.10;;;;;;;15.31;32.90;101484.27;105746;1256;64293;-61
2023/10/11 10:58:20;;;;;;;5.90;2.00;;;;;;;15.36;32.68;101482.09;105530;1257;60170;-60
2023/10/11 11:00:54;;;;;;;5.60;2.30;;;;;;;15.40;32.29;101481.79;105888;1259;62458;-62
2023/10/11 11:03:22;;;;;;;4.40;1.80;;;;;;;15.43;32.51;101477.30;105678;1260;60523;-64
2023/10/11 11:05:56;;;;;;;8.40;2.00;;;;;;;15.47;32.29;101470.96;105967;1256;59661;-63
2023/10/11 11:08:29;;;;;;;4.90;1.60;;;;;;;15.49;31.89;101464.75;105248;1260;64118;-60
2023/10/11 11:11:25;;;;;;;6.90;1.80;;;;;;;15.50;32.14;101462.02;105184;1260;71038;-54
2023/10/11 11:13:56;;;;;;;6.10;1.60;;;;;;;15.49;31.83;101458.02;105735;1256;63878;-53
2023/10/11 11:16:26;;;;;;;5.20;2.10;;;;;;;15.48;31.52;101455.86;105258;1256;59696;-54
2023/10/11 11:19:00;;;;;;;5.00;1.70;;;;;;;15.46;31.77;101447.34;105127;1256;59945;-55
2023/10/11 11:21:29;;;;;;;4.70;1.60;;;;;;;15.50;32.01;101445.96;105210;1259;64179;-54
2023/10/11 11:24:34;;;;;;;5.10;2.10;;;;;;;15.56;31.47;101443.52;105240;1256;61840;-54
2023/10/11 11:27:06;;;;;;;4.60;1.70;;;;;;;15.62;31.66;101447.98;105566;1257;63743;-53
2023/10/11 11:29:34;;;;;;;6.40;1.60;;;;;;;15.67;31.42;101442.00;105412;1256;60450;-54
2023/10/11 11:32:14;;;;;;;4.50;2.10;;;;;;;15.71;31.31;101440.83;105296;1259;61700;-54
2023/10/11 11:35:09;;;;;;;5.00;1.70;;;;;;;15.69;30.79;101435.30;105217;1257;74837;-54
2023/10/11 11:37:39;;;;;;;4.90;1.60;;;;;;;15.62;30.76;101431.98;105271;1260;60467;-54
2023/10/11 11:40:24;;;;;;;6.70;2.20;;;;;;;15.56;30.96;101433.89;105386;1257;62473;-54
2023/10/11 11:42:51;;;;;;;7.10;2.00;;;;;;;15.54;30.84;101434.63;105221;1256;60649;-55
2023/10/11 11:45:20;;;;;;;4.50;1.40;;;;;;;15.59;30.24;101436.89;105265;1257;61682;-55
2023/10/11 11:47:57;;;;;;;4.90;2.00;;;;;;;15.67;29.90;101436.89;105765;1256;65093;-55
2023/10/11 11:50:25;;;;;;;5.20;1.70;;;;;;;15.78;29.28;101436.56;105647;1256;61564;-57
2023/10/11 11:52:57;;;;;;;4.80;1.70;;;;;;;15.88;29.34;101444.04;105142;1256;63755;-54
2023/10/11 11:55:26;;;;;;;7.50;2.00;;;;;;;15.97;29.00;101445.52;105554;1257;62298;-55
2023/10/11 11:57:53;;;;;;;5.90;2.00;;;;;;;16.06;29.06;101442.33;105594;1258;60570;-54
2023/10/11 12:02:54;;;;;;;6.00;2.40;;;;;;;16.37;29.57;101436.92;105591;1256;72582;-55
2023/10/11 12:05:22;;;;;;;6.50;2.00;;;;;;;16.53;28.32;101442.11;105210;1257;64318;-55
2023/10/11 12:07:49;;;;;;;5.40;1.90;;;;;;;16.61;28.23;101430.96;105254;1257;60544;-53
2023/10/11 12:10:23;;;;;;;4.80;1.90;;;;;;;16.69;28.46;101419.72;105268;1257;60766;-55
2023/10/11 12:13:01;;;;;;;11.30;2.30;;;;;;;16.79;27.67;101429.09;105765;1254;74847;-54
2023/10/11 12:15:29;;;;;;;4.90;1.90;;;;;;;16.85;27.86;101424.54;105520;1260;60528;-54
2023/10/11 12:17:57;;;;;;;4.70;1.80;;;;;;;16.91;27.52;101422.56;105191;1256;63986;-54
2023/10/11 12:20:34;;;;;;;5.40;2.00;;;;;;;16.93;27.18;101418.90;105231;1259;60425;-55
2023/10/11 12:23:07;;;;;;;6.00;2.10;;;;;;;16.91;27.10;101411.98;105463;1259;60480;-55
2023/10/11 12:25:36;;;;;;;5.40;1.90;;;;;;;16.90;26.91;101414.75;105287;1256;75843;-55
2023/10/11 12:28:05;;;;;;;5.10;2.00;;;;;;;16.88;26.98;101413.30;105380;1259;60532;-55
2023/10/11 12:30:36;;;;;;;5.00;2.00;;;;;;;16.89;27.36;101405.97;105431;1257;62885;-55
2023/10/11 12:33:07;;;;;;;4.80;1.90;;;;;;;16.93;27.25;101405.94;105179;1259;60550;-52
2023/10/11 12:35:40;;;;;;;8.80;2.10;;;;;;;16.99;27.25;101406.86;105204;1254;60542;-54
2023/10/11 12:38:12;;;;;;;6.70;2.40;;;;;;;17.07;27.38;101412.85;105278;1261;65083;-53
2023/10/11 12:40:40;;;;;;;6.80;2.10;;;;;;;17.17;27.24;101405.52;106112;1256;72607;-56
2023/10/11 12:43:07;;;;;;;5.20;1.90;;;;;;;17.30;27.04;101396.33;105327;1256;66041;-54
2023/10/11 12:45:42;;;;;;;6.10;2.10;;;;;;;17.75;26.76;101396.82;106058;1257;61026;-54
2023/10/11 12:48:10;;;;;;;6.90;2.20;;;;;;;18.20;26.75;101394.53;105286;1260;60454;-64